createdAt,value
2019-03-10T00:03:08.945Z,15.50
2019-03-10T00:08:27.574Z,34.80
2019-03-10T00:13:46.277Z,19.87
2019-03-10T00:19:04.881Z,27.90
2019-03-10T00:24:23.526Z,28.70
2019-03-10T00:29:42.210Z,41.57
2019-03-10T00:35:01.207Z,26.40
2019-03-10T00:40:45.502Z,40.13
2019-03-10T00:46:21.470Z,37.87
2019-03-10T00:52:01.190Z,26.67
2019-03-10T00:57:19.827Z,25.90
2019-03-10T01:02:38.438Z,31.40
2019-03-10T01:07:57.412Z,33.37
2019-03-10T01:13:16.051Z,42.57
2019-03-10T01:18:35.978Z,29.60
2019-03-10T01:23:54.620Z,32.60
2019-03-10T01:29:13.291Z,34.10
2019-03-10T01:34:40.770Z,40.00
2019-03-10T01:39:59.392Z,31.17
2019-03-10T01:45:18.002Z,27.50
2019-03-10T01:50:36.617Z,34.93
2019-03-10T01:55:55.330Z,40.83
2019-03-10T02:01:13.946Z,34.03
2019-03-10T02:06:32.404Z,33.83
2019-03-10T02:11:51.019Z,41.03
2019-03-10T02:17:09.905Z,34.70
2019-03-10T02:22:28.465Z,32.13
2019-03-10T02:27:47.158Z,26.67
2019-03-10T02:33:05.767Z,35.47
2019-03-10T02:38:24.606Z,24.50
2019-03-10T02:43:43.155Z,31.90
2019-03-10T02:49:01.725Z,41.57
2019-03-10T02:54:20.233Z,47.97
2019-03-10T02:59:38.793Z,45.80
2019-03-10T03:04:57.430Z,38.33
2019-03-10T03:10:16.059Z,32.47
2019-03-10T03:15:34.607Z,38.57
2019-03-10T03:20:53.248Z,41.90
2019-03-10T03:26:11.855Z,33.13
2019-03-10T03:31:30.503Z,25.93
2019-03-10T03:36:49.122Z,17.27
2019-03-10T03:42:07.730Z,29.63
2019-03-10T03:47:26.284Z,35.43
2019-03-10T03:52:44.917Z,35.00
2019-03-10T03:58:03.568Z,14.70
2019-03-10T04:03:22.199Z,25.23
2019-03-10T04:08:40.760Z,19.57
2019-03-10T04:13:59.384Z,20.53
2019-03-10T04:19:18.066Z,21.37
2019-03-10T04:24:36.607Z,26.13
2019-03-10T04:29:55.154Z,19.07
2019-03-10T04:35:13.822Z,15.93
2019-03-10T04:40:32.377Z,20.07
2019-03-10T04:45:50.986Z,27.70
2019-03-10T04:51:09.531Z,18.83
2019-03-10T04:56:29.776Z,23.23
2019-03-10T05:01:48.413Z,24.97
2019-03-10T05:07:10.123Z,27.17
2019-03-10T05:12:28.759Z,21.80
2019-03-10T05:17:47.381Z,24.33
2019-03-10T05:23:29.911Z,25.20
2019-03-10T05:28:48.533Z,26.87
2019-03-10T05:34:08.789Z,24.00
2019-03-10T05:39:27.434Z,22.53
2019-03-10T05:44:46.061Z,14.73
2019-03-10T05:50:06.170Z,21.33
2019-03-10T05:55:24.726Z,25.53
2019-03-10T06:00:43.527Z,21.23
2019-03-10T06:06:02.070Z,21.53
2019-03-10T06:11:20.697Z,24.97
2019-03-10T06:16:39.255Z,15.97
2019-03-10T06:21:57.880Z,17.73
2019-03-10T06:27:16.505Z,21.63
2019-03-10T06:32:34.990Z,15.33
2019-03-10T06:37:53.481Z,10.50
2019-03-10T06:43:11.986Z,11.33
2019-03-10T06:48:30.543Z,7.50
2019-03-10T06:53:49.078Z,12.00
2019-03-10T06:59:07.801Z,13.73
2019-03-10T07:04:26.284Z,8.43
2019-03-10T07:09:44.845Z,7.30
2019-03-10T07:15:03.826Z,5.93
2019-03-10T07:20:22.650Z,9.40
2019-03-10T07:25:41.443Z,5.67
2019-03-10T07:31:04.125Z,5.97
2019-03-10T07:36:27.039Z,8.33
2019-03-10T07:41:53.185Z,5.10
2019-03-10T07:47:19.364Z,6.00
2019-03-10T07:52:45.820Z,4.77
2019-03-10T07:58:09.018Z,8.03
2019-03-10T08:03:37.780Z,8.23
2019-03-10T08:09:14.253Z,5.43
2019-03-10T08:14:37.478Z,11.10
2019-03-10T08:19:57.799Z,5.20
2019-03-10T08:25:21.095Z,8.38
2019-03-10T08:30:47.261Z,6.80
2019-03-10T08:41:47.803Z,6.37
2019-03-10T08:47:21.417Z,7.30
2019-03-10T08:52:41.620Z,7.90
2019-03-10T08:58:18.075Z,5.70
2019-03-10T09:03:44.055Z,8.10
2019-03-10T09:09:09.765Z,8.23
2019-03-10T09:14:30.116Z,11.73
2019-03-10T09:20:06.494Z,8.00
2019-03-10T09:25:29.140Z,9.77
2019-03-10T09:31:01.418Z,16.20
2019-03-10T09:36:30.467Z,14.27
2019-03-10T09:41:53.778Z,13.10
2019-03-10T09:47:13.934Z,11.37
2019-03-10T09:52:37.201Z,18.40
2019-03-10T09:58:12.496Z,8.97
2019-03-10T10:03:44.375Z,8.40
2019-03-10T10:09:04.676Z,8.07
2019-03-10T10:14:33.432Z,4.33
2019-03-10T10:20:05.277Z,6.72
2019-03-10T10:25:25.558Z,7.40
2019-03-10T10:30:54.517Z,2.60
2019-03-10T10:36:31.030Z,25.47
2019-03-10T10:42:00.429Z,6.17
2019-03-10T10:47:20.663Z,7.95
2019-03-10T10:52:43.689Z,6.03
2019-03-10T10:58:13.129Z,5.47
2019-03-10T11:03:36.082Z,4.07
2019-03-10T11:09:14.064Z,13.00
2019-03-10T11:14:43.153Z,6.67
2019-03-10T11:20:03.429Z,2.03
2019-03-10T11:25:23.634Z,13.63
2019-03-10T11:30:46.545Z,18.93
2019-03-10T11:36:15.880Z,2.73
2019-03-10T11:41:36.108Z,12.97
2019-03-10T11:46:59.154Z,8.53
2019-03-10T11:52:22.135Z,9.40
2019-03-10T11:57:42.589Z,12.90
2019-03-10T12:03:05.621Z,10.33
2019-03-10T12:08:25.823Z,5.77
2019-03-10T12:13:47.863Z,8.83
2019-03-10T12:19:06.528Z,8.10
2019-03-10T12:24:25.171Z,11.93
2019-03-10T12:29:43.815Z,18.37
2019-03-10T12:35:02.402Z,13.63
2019-03-10T12:40:20.881Z,15.63
2019-03-10T12:45:39.440Z,20.30
2019-03-10T12:50:57.985Z,5.37
2019-03-10T12:56:16.531Z,5.50
2019-03-10T13:01:35.186Z,5.10
2019-03-10T13:06:53.824Z,10.90
2019-03-10T13:12:12.471Z,9.60
2019-03-10T13:17:31.110Z,12.13
2019-03-10T13:22:49.560Z,15.17
2019-03-10T13:28:08.188Z,14.70
2019-03-10T13:33:26.776Z,12.63
2019-03-10T13:38:45.777Z,12.93
2019-03-10T13:44:07.324Z,11.73
2019-03-10T13:49:25.870Z,10.87
2019-03-10T13:54:44.411Z,10.40
2019-03-10T14:00:03.114Z,8.23
2019-03-10T14:05:21.744Z,6.33
2019-03-10T14:10:40.418Z,7.13
2019-03-10T14:15:59.522Z,2.37
2019-03-10T14:21:18.183Z,1.37
2019-03-10T14:26:36.815Z,6.10
2019-03-10T14:31:55.432Z,3.00
2019-03-10T14:37:14.018Z,5.40
2019-03-10T14:42:32.626Z,15.07
2019-03-10T14:47:51.532Z,16.13
2019-03-10T14:53:10.073Z,3.03
2019-03-10T14:58:28.608Z,3.60
2019-03-10T15:03:47.227Z,3.70
2019-03-10T15:09:07.619Z,4.03
2019-03-10T15:14:26.266Z,1.30
2019-03-10T15:19:45.850Z,6.40
2019-03-10T15:25:06.749Z,10.33
2019-03-10T15:30:26.574Z,2.03
2019-03-10T15:35:45.244Z,2.03
2019-03-10T15:41:03.772Z,1.23
2019-03-10T15:46:23.401Z,5.97
2019-03-10T15:51:42.154Z,3.30
2019-03-10T15:57:02.425Z,4.00
2019-03-10T16:02:21.120Z,1.27
2019-03-10T16:07:39.739Z,0.87
2019-03-10T16:12:58.342Z,0.80
2019-03-10T16:18:16.889Z,1.73
2019-03-10T16:23:36.411Z,1.87
2019-03-10T16:28:55.045Z,1.45
2019-03-10T16:34:15.860Z,1.00
2019-03-10T16:39:34.651Z,0.97
2019-03-10T16:44:54.439Z,0.90
2019-03-10T16:50:15.910Z,2.40
2019-03-10T16:55:34.522Z,1.60
2019-03-10T17:00:53.137Z,0.80
2019-03-10T17:06:11.792Z,0.83
2019-03-10T17:11:30.381Z,0.90
2019-03-10T17:16:49.075Z,1.27
2019-03-10T17:22:07.700Z,1.03
2019-03-10T17:27:26.730Z,1.30
2019-03-10T17:32:45.333Z,1.60
2019-03-10T17:38:03.966Z,1.90
2019-03-10T17:43:23.975Z,2.27
2019-03-10T17:48:42.471Z,5.20
2019-03-10T17:54:01.137Z,7.15
2019-03-10T17:59:20.003Z,3.43
2019-03-10T18:04:38.534Z,4.50
2019-03-10T18:09:57.178Z,1.47
2019-03-10T18:15:19.156Z,4.22
2019-03-10T18:20:37.882Z,2.80
2019-03-10T18:25:56.712Z,7.27
2019-03-10T18:31:15.402Z,2.73
2019-03-10T18:36:33.886Z,4.00
2019-03-10T18:41:52.536Z,3.53
2019-03-10T18:47:11.396Z,4.93
2019-03-10T18:52:30.196Z,9.95
2019-03-10T18:57:48.878Z,2.63
2019-03-10T19:03:07.696Z,4.20
2019-03-10T19:08:26.399Z,3.87
2019-03-10T19:13:46.489Z,1.30
2019-03-10T19:19:05.101Z,1.67
2019-03-10T19:24:23.670Z,2.00
2019-03-10T19:29:42.211Z,4.60
2019-03-10T19:35:01.324Z,1.37
2019-03-10T19:40:21.925Z,1.20
2019-03-10T19:45:40.469Z,6.23
2019-03-10T19:50:59.082Z,3.00
2019-03-10T19:56:17.626Z,5.40
2019-03-10T20:01:37.090Z,3.23
2019-03-10T20:06:55.564Z,2.27
2019-03-10T20:12:14.194Z,4.83
2019-03-10T20:17:32.923Z,2.20
2019-03-10T20:22:51.533Z,2.20
2019-03-10T20:28:10.256Z,1.43
2019-03-10T20:33:28.914Z,2.43
2019-03-10T20:38:47.529Z,3.87
2019-03-10T20:44:06.131Z,1.53
2019-03-10T20:49:27.503Z,4.83
2019-03-10T20:54:46.127Z,2.00
2019-03-10T21:00:08.368Z,4.90
2019-03-10T21:05:26.951Z,1.35
2019-03-10T21:10:45.568Z,4.33
2019-03-10T21:16:04.571Z,8.97
2019-03-10T21:21:23.288Z,10.70
2019-03-10T21:26:41.916Z,11.20
2019-03-10T21:32:00.738Z,10.77
2019-03-10T21:37:19.435Z,10.37
2019-03-10T21:42:38.059Z,5.25
2019-03-10T21:47:56.810Z,4.83
2019-03-10T21:53:15.320Z,1.37
2019-03-10T21:58:33.859Z,8.77
2019-03-10T22:03:52.575Z,3.03
2019-03-10T22:09:11.338Z,5.20
2019-03-10T22:14:29.986Z,6.67
2019-03-10T22:19:48.551Z,1.93
2019-03-10T22:25:12.883Z,5.95
2019-03-10T22:30:28.479Z,8.90
2019-03-10T22:35:47.090Z,1.43
2019-03-10T22:41:05.717Z,5.40
2019-03-10T22:46:24.178Z,2.70
2019-03-10T22:51:42.723Z,9.50
2019-03-10T22:57:01.555Z,4.63
2019-03-10T23:02:20.196Z,6.87
2019-03-10T23:07:39.060Z,6.30
2019-03-10T23:12:57.864Z,13.77
2019-03-10T23:18:16.624Z,14.07
2019-03-10T23:23:35.160Z,3.63
2019-03-10T23:28:53.789Z,4.93
2019-03-10T23:34:12.721Z,2.17
2019-03-10T23:39:31.280Z,2.50
2019-03-10T23:44:50.111Z,8.23
2019-03-10T23:50:11.417Z,9.93
2019-03-10T23:55:29.971Z,3.23
